sensor_id;sensor_type;location;lat;lon;timestamp;P1;durP1;ratioP1;P2;durP2;ratioP2
66012;SDS011;52783;50.502;8.190;2023-02-15T00:01:36;404.33;;;25.27;;
66012;SDS011;52783;50.502;8.190;2023-02-15T00:04:02;309.20;;;18.88;;
66012;SDS011;52783;50.502;8.190;2023-02-15T00:06:29;258.05;;;20.75;;
66012;SDS011;52783;50.502;8.190;2023-02-15T00:08:55;379.27;;;21.95;;
66012;SDS011;52783;50.502;8.190;2023-02-15T00:11:21;537.60;;;25.42;;
66012;SDS011;52783;50.502;8.190;2023-02-15T00:14:09;327.65;;;22.27;;
66012;SDS011;52783;50.502;8.190;2023-02-15T00:16:40;490.63;;;27.90;;
66012;SDS011;52783;50.502;8.190;2023-02-15T00:19:08;362.95;;;24.58;;
66012;SDS011;52783;50.502;8.190;2023-02-15T00:21:35;421.27;;;23.73;;
66012;SDS011;52783;50.502;8.190;2023-02-15T00:24:01;401.15;;;21.77;;
66012;SDS011;52783;50.502;8.190;2023-02-15T00:26:29;255.23;;;22.60;;
66012;SDS011;52783;50.502;8.190;2023-02-15T00:28:55;508.67;;;22.75;;
66012;SDS011;52783;50.502;8.190;2023-02-15T00:31:25;408.23;;;21.92;;
66012;SDS011;52783;50.502;8.190;2023-02-15T00:33:52;328.60;;;23.33;;
66012;SDS011;52783;50.502;8.190;2023-02-15T00:36:17;373.05;;;21.85;;
66012;SDS011;52783;50.502;8.190;2023-02-15T00:38:43;407.67;;;21.55;;
66012;SDS011;52783;50.502;8.190;2023-02-15T00:41:09;258.48;;;24.65;;
66012;SDS011;52783;50.502;8.190;2023-02-15T00:43:35;517.00;;;25.75;;
66012;SDS011;52783;50.502;8.190;2023-02-15T00:46:02;325.45;;;21.58;;
66012;SDS011;52783;50.502;8.190;2023-02-15T00:48:29;400.38;;;24.77;;
66012;SDS011;52783;50.502;8.190;2023-02-15T00:50:55;310.65;;;20.75;;
66012;SDS011;52783;50.502;8.190;2023-02-15T00:53:22;377.48;;;20.48;;
66012;SDS011;52783;50.502;8.190;2023-02-15T00:55:48;508.77;;;24.42;;
66012;SDS011;52783;50.502;8.190;2023-02-15T00:58:14;504.80;;;22.23;;
66012;SDS011;52783;50.502;8.190;2023-02-15T01:00:41;378.90;;;17.65;;
66012;SDS011;52783;50.502;8.190;2023-02-15T01:03:08;455.92;;;22.35;;
66012;SDS011;52783;50.502;8.190;2023-02-15T01:05:34;604.47;;;24.75;;
66012;SDS011;52783;50.502;8.190;2023-02-15T01:08:00;414.35;;;20.75;;
66012;SDS011;52783;50.502;8.190;2023-02-15T01:10:25;453.23;;;22.88;;
66012;SDS011;52783;50.502;8.190;2023-02-15T01:12:52;354.17;;;18.83;;
66012;SDS011;52783;50.502;8.190;2023-02-15T01:15:18;427.35;;;23.52;;
66012;SDS011;52783;50.502;8.190;2023-02-15T01:17:44;344.08;;;19.20;;
66012;SDS011;52783;50.502;8.190;2023-02-15T01:20:16;435.92;;;21.10;;
66012;SDS011;52783;50.502;8.190;2023-02-15T01:22:42;427.63;;;19.95;;
66012;SDS011;52783;50.502;8.190;2023-02-15T01:25:07;363.13;;;18.60;;
66012;SDS011;52783;50.502;8.190;2023-02-15T01:27:33;315.95;;;15.88;;
66012;SDS011;52783;50.502;8.190;2023-02-15T01:29:59;317.85;;;19.05;;
66012;SDS011;52783;50.502;8.190;2023-02-15T01:32:24;312.20;;;20.42;;
66012;SDS011;52783;50.502;8.190;2023-02-15T01:34:51;286.33;;;18.35;;
66012;SDS011;52783;50.502;8.190;2023-02-15T01:37:17;350.48;;;16.55;;
66012;SDS011;52783;50.502;8.190;2023-02-15T01:39:43;361.70;;;17.65;;
66012;SDS011;52783;50.502;8.190;2023-02-15T01:42:11;385.40;;;17.25;;
66012;SDS011;52783;50.502;8.190;2023-02-15T01:44:56;393.20;;;18.17;;
66012;SDS011;52783;50.502;8.190;2023-02-15T01:47:35;253.95;;;16.10;;
66012;SDS011;52783;50.502;8.190;2023-02-15T01:52:47;544.75;;;23.98;;
66012;SDS011;52783;50.502;8.190;2023-02-15T01:55:15;486.38;;;18.95;;
66012;SDS011;52783;50.502;8.190;2023-02-15T01:57:41;503.55;;;22.27;;
66012;SDS011;52783;50.502;8.190;2023-02-15T02:00:08;500.05;;;18.67;;
66012;SDS011;52783;50.502;8.190;2023-02-15T02:02:34;376.35;;;16.15;;
66012;SDS011;52783;50.502;8.190;2023-02-15T02:05:01;445.92;;;20.35;;
66012;SDS011;52783;50.502;8.190;2023-02-15T02:07:31;426.38;;;17.17;;
66012;SDS011;52783;50.502;8.190;2023-02-15T02:10:02;538.20;;;20.52;;
66012;SDS011;52783;50.502;8.190;2023-02-15T02:12:28;512.90;;;18.08;;
66012;SDS011;52783;50.502;8.190;2023-02-15T02:14:54;442.85;;;19.30;;
66012;SDS011;52783;50.502;8.190;2023-02-15T02:33:44;396.25;;;18.58;;
66012;SDS011;52783;50.502;8.190;2023-02-15T02:44:47;391.02;;;14.75;;
66012;SDS011;52783;50.502;8.190;2023-02-15T02:53:18;268.02;;;13.07;;
66012;SDS011;52783;50.502;8.190;2023-02-15T02:55:49;423.02;;;17.77;;
66012;SDS011;52783;50.502;8.190;2023-02-15T03:01:06;352.67;;;17.25;;
66012;SDS011;52783;50.502;8.190;2023-02-15T03:06:11;273.95;;;16.40;;
66012;SDS011;52783;50.502;8.190;2023-02-15T03:08:44;340.25;;;15.20;;
66012;SDS011;52783;50.502;8.190;2023-02-15T03:11:13;270.17;;;15.85;;
66012;SDS011;52783;50.502;8.190;2023-02-15T03:13:40;257.27;;;15.65;;
66012;SDS011;52783;50.502;8.190;2023-02-15T03:16:06;323.65;;;15.82;;
66012;SDS011;52783;50.502;8.190;2023-02-15T03:19:35;441.77;;;17.60;;
66012;SDS011;52783;50.502;8.190;2023-02-15T03:21:48;337.83;;;14.50;;
66012;SDS011;52783;50.502;8.190;2023-02-15T03:24:23;555.38;;;27.38;;
66012;SDS011;52783;50.502;8.190;2023-02-15T03:26:52;422.08;;;16.15;;
66012;SDS011;52783;50.502;8.190;2023-02-15T03:29:20;314.95;;;15.55;;
66012;SDS011;52783;50.502;8.190;2023-02-15T03:31:53;375.05;;;15.63;;
66012;SDS011;52783;50.502;8.190;2023-02-15T03:34:23;567.67;;;21.67;;
66012;SDS011;52783;50.502;8.190;2023-02-15T03:36:53;389.25;;;15.02;;
66012;SDS011;52783;50.502;8.190;2023-02-15T03:42:29;350.90;;;16.10;;
66012;SDS011;52783;50.502;8.190;2023-02-15T03:45:05;393.95;;;17.88;;
66012;SDS011;52783;50.502;8.190;2023-02-15T03:47:36;437.55;;;19.25;;
66012;SDS011;52783;50.502;8.190;2023-02-15T03:50:06;463.00;;;17.92;;
66012;SDS011;52783;50.502;8.190;2023-02-15T03:52:58;355.15;;;17.55;;
66012;SDS011;52783;50.502;8.190;2023-02-15T03:55:26;324.85;;;16.00;;
66012;SDS011;52783;50.502;8.190;2023-02-15T03:57:53;311.17;;;14.80;;
66012;SDS011;52783;50.502;8.190;2023-02-15T04:00:37;382.60;;;18.48;;
66012;SDS011;52783;50.502;8.190;2023-02-15T04:06:06;391.73;;;15.55;;
66012;SDS011;52783;50.502;8.190;2023-02-15T04:08:31;534.80;;;24.38;;
66012;SDS011;52783;50.502;8.190;2023-02-15T04:11:16;404.50;;;16.80;;
66012;SDS011;52783;50.502;8.190;2023-02-15T04:13:41;405.83;;;16.38;;
66012;SDS011;52783;50.502;8.190;2023-02-15T04:16:07;370.13;;;15.60;;
66012;SDS011;52783;50.502;8.190;2023-02-15T04:21:22;294.80;;;14.85;;
66012;SDS011;52783;50.502;8.190;2023-02-15T04:24:07;321.95;;;15.40;;
66012;SDS011;52783;50.502;8.190;2023-02-15T04:26:51;490.45;;;18.55;;
66012;SDS011;52783;50.502;8.190;2023-02-15T04:29:21;416.50;;;18.50;;
66012;SDS011;52783;50.502;8.190;2023-02-15T04:31:47;345.50;;;17.25;;
66012;SDS011;52783;50.502;8.190;2023-02-15T04:34:13;430.60;;;17.48;;
66012;SDS011;52783;50.502;8.190;2023-02-15T04:36:39;372.95;;;17.65;;
66012;SDS011;52783;50.502;8.190;2023-02-15T04:39:05;325.63;;;18.00;;
66012;SDS011;52783;50.502;8.190;2023-02-15T04:41:31;374.10;;;21.65;;
66012;SDS011;52783;50.502;8.190;2023-02-15T04:43:57;292.05;;;16.55;;
66012;SDS011;52783;50.502;8.190;2023-02-15T04:46:25;344.60;;;16.92;;
66012;SDS011;52783;50.502;8.190;2023-02-15T04:48:51;227.73;;;13.80;;
66012;SDS011;52783;50.502;8.190;2023-02-15T04:51:17;435.17;;;22.17;;
66012;SDS011;52783;50.502;8.190;2023-02-15T04:53:42;338.63;;;15.00;;
66012;SDS011;52783;50.502;8.190;2023-02-15T04:56:11;140.80;;;14.48;;
66012;SDS011;52783;50.502;8.190;2023-02-15T04:58:37;293.90;;;14.18;;
66012;SDS011;52783;50.502;8.190;2023-02-15T05:01:06;339.75;;;14.98;;
66012;SDS011;52783;50.502;8.190;2023-02-15T05:03:32;372.85;;;16.50;;
66012;SDS011;52783;50.502;8.190;2023-02-15T05:05:58;357.42;;;15.50;;
66012;SDS011;52783;50.502;8.190;2023-02-15T05:08:23;381.98;;;16.80;;
66012;SDS011;52783;50.502;8.190;2023-02-15T05:10:49;385.85;;;15.82;;
66012;SDS011;52783;50.502;8.190;2023-02-15T05:13:14;470.63;;;18.17;;
66012;SDS011;52783;50.502;8.190;2023-02-15T05:15:40;473.67;;;17.33;;
66012;SDS011;52783;50.502;8.190;2023-02-15T05:18:07;299.88;;;15.35;;
66012;SDS011;52783;50.502;8.190;2023-02-15T05:20:33;222.00;;;14.50;;
66012;SDS011;52783;50.502;8.190;2023-02-15T05:22:58;300.20;;;16.58;;
66012;SDS011;52783;50.502;8.190;2023-02-15T05:25:24;416.20;;;18.90;;
66012;SDS011;52783;50.502;8.190;2023-02-15T05:28:09;289.33;;;16.73;;
66012;SDS011;52783;50.502;8.190;2023-02-15T05:30:44;309.70;;;14.65;;
66012;SDS011;52783;50.502;8.190;2023-02-15T05:33:10;353.83;;;16.77;;
66012;SDS011;52783;50.502;8.190;2023-02-15T05:35:35;267.48;;;12.98;;
66012;SDS011;52783;50.502;8.190;2023-02-15T05:38:01;410.15;;;18.13;;
66012;SDS011;52783;50.502;8.190;2023-02-15T05:40:26;345.75;;;17.73;;
66012;SDS011;52783;50.502;8.190;2023-02-15T05:42:52;475.95;;;20.38;;
66012;SDS011;52783;50.502;8.190;2023-02-15T05:45:18;460.77;;;20.23;;
66012;SDS011;52783;50.502;8.190;2023-02-15T05:47:43;318.40;;;15.23;;
66012;SDS011;52783;50.502;8.190;2023-02-15T05:50:09;216.57;;;15.25;;
66012;SDS011;52783;50.502;8.190;2023-02-15T05:52:36;319.02;;;15.07;;
66012;SDS011;52783;50.502;8.190;2023-02-15T05:55:02;360.38;;;17.35;;
66012;SDS011;52783;50.502;8.190;2023-02-15T05:57:29;364.08;;;13.75;;
66012;SDS011;52783;50.502;8.190;2023-02-15T05:59:55;475.48;;;20.85;;
66012;SDS011;52783;50.502;8.190;2023-02-15T06:02:21;441.45;;;18.20;;
66012;SDS011;52783;50.502;8.190;2023-02-15T06:04:46;446.30;;;20.10;;
66012;SDS011;52783;50.502;8.190;2023-02-15T06:07:12;286.13;;;17.00;;
66012;SDS011;52783;50.502;8.190;2023-02-15T06:09:37;361.05;;;18.00;;
66012;SDS011;52783;50.502;8.190;2023-02-15T06:12:03;380.85;;;17.52;;
66012;SDS011;52783;50.502;8.190;2023-02-15T06:14:29;294.25;;;17.15;;
66012;SDS011;52783;50.502;8.190;2023-02-15T06:16:54;280.90;;;16.95;;
66012;SDS011;52783;50.502;8.190;2023-02-15T06:19:20;282.38;;;17.35;;
66012;SDS011;52783;50.502;8.190;2023-02-15T06:21:46;152.73;;;16.10;;
66012;SDS011;52783;50.502;8.190;2023-02-15T06:24:11;230.88;;;13.13;;
66012;SDS011;52783;50.502;8.190;2023-02-15T06:26:37;175.27;;;14.20;;
66012;SDS011;52783;50.502;8.190;2023-02-15T06:29:03;242.27;;;14.10;;
66012;SDS011;52783;50.502;8.190;2023-02-15T06:31:28;214.68;;;12.93;;
66012;SDS011;52783;50.502;8.190;2023-02-15T06:33:57;211.13;;;16.63;;
66012;SDS011;52783;50.502;8.190;2023-02-15T06:36:51;126.50;;;13.70;;
66012;SDS011;52783;50.502;8.190;2023-02-15T06:39:22;169.60;;;15.98;;
66012;SDS011;52783;50.502;8.190;2023-02-15T06:41:48;197.45;;;14.30;;
66012;SDS011;52783;50.502;8.190;2023-02-15T06:44:14;163.25;;;14.80;;
66012;SDS011;52783;50.502;8.190;2023-02-15T06:46:39;204.80;;;14.93;;
66012;SDS011;52783;50.502;8.190;2023-02-15T06:49:05;120.90;;;13.10;;
66012;SDS011;52783;50.502;8.190;2023-02-15T06:51:31;107.63;;;13.80;;
66012;SDS011;52783;50.502;8.190;2023-02-15T06:53:56;145.32;;;13.25;;
66012;SDS011;52783;50.502;8.190;2023-02-15T06:56:22;126.00;;;15.45;;
66012;SDS011;52783;50.502;8.190;2023-02-15T06:58:47;106.70;;;16.25;;
66012;SDS011;52783;50.502;8.190;2023-02-15T07:01:14;127.68;;;15.52;;
66012;SDS011;52783;50.502;8.190;2023-02-15T07:03:40;91.60;;;14.10;;
66012;SDS011;52783;50.502;8.190;2023-02-15T07:06:06;184.90;;;15.25;;
66012;SDS011;52783;50.502;8.190;2023-02-15T07:08:33;142.02;;;14.80;;
66012;SDS011;52783;50.502;8.190;2023-02-15T07:11:00;100.53;;;13.60;;
66012;SDS011;52783;50.502;8.190;2023-02-15T07:13:45;97.35;;;11.70;;
66012;SDS011;52783;50.502;8.190;2023-02-15T07:16:11;105.30;;;11.15;;
66012;SDS011;52783;50.502;8.190;2023-02-15T07:18:37;127.82;;;12.60;;
66012;SDS011;52783;50.502;8.190;2023-02-15T07:21:04;150.80;;;14.05;;
66012;SDS011;52783;50.502;8.190;2023-02-15T07:23:32;77.10;;;14.25;;
66012;SDS011;52783;50.502;8.190;2023-02-15T07:25:59;109.93;;;12.40;;
66012;SDS011;52783;50.502;8.190;2023-02-15T07:28:26;108.30;;;13.48;;
66012;SDS011;52783;50.502;8.190;2023-02-15T07:30:52;301.83;;;15.75;;
66012;SDS011;52783;50.502;8.190;2023-02-15T07:33:18;110.07;;;14.45;;
66012;SDS011;52783;50.502;8.190;2023-02-15T07:35:55;123.82;;;13.65;;
66012;SDS011;52783;50.502;8.190;2023-02-15T07:38:23;139.50;;;13.18;;
66012;SDS011;52783;50.502;8.190;2023-02-15T07:40:49;88.10;;;12.93;;
66012;SDS011;52783;50.502;8.190;2023-02-15T07:43:15;160.55;;;14.65;;
66012;SDS011;52783;50.502;8.190;2023-02-15T07:45:41;129.00;;;11.63;;
66012;SDS011;52783;50.502;8.190;2023-02-15T07:48:07;145.68;;;11.75;;
66012;SDS011;52783;50.502;8.190;2023-02-15T07:50:33;123.57;;;12.88;;
66012;SDS011;52783;50.502;8.190;2023-02-15T07:53:03;197.80;;;14.52;;
66012;SDS011;52783;50.502;8.190;2023-02-15T07:55:29;81.43;;;14.52;;
66012;SDS011;52783;50.502;8.190;2023-02-15T07:57:55;99.72;;;13.18;;
66012;SDS011;52783;50.502;8.190;2023-02-15T08:00:21;130.65;;;13.70;;
66012;SDS011;52783;50.502;8.190;2023-02-15T08:02:50;152.32;;;13.90;;
66012;SDS011;52783;50.502;8.190;2023-02-15T08:05:38;101.32;;;15.27;;
66012;SDS011;52783;50.502;8.190;2023-02-15T08:08:10;76.20;;;12.68;;
66012;SDS011;52783;50.502;8.190;2023-02-15T08:11:02;83.68;;;14.48;;
66012;SDS011;52783;50.502;8.190;2023-02-15T08:16:38;109.25;;;13.27;;
66012;SDS011;52783;50.502;8.190;2023-02-15T08:19:16;92.43;;;13.65;;
66012;SDS011;52783;50.502;8.190;2023-02-15T08:21:47;86.10;;;11.98;;
66012;SDS011;52783;50.502;8.190;2023-02-15T08:24:19;116.72;;;14.48;;
66012;SDS011;52783;50.502;8.190;2023-02-15T08:26:46;106.82;;;13.98;;
66012;SDS011;52783;50.502;8.190;2023-02-15T08:29:16;103.68;;;16.55;;
66012;SDS011;52783;50.502;8.190;2023-02-15T08:31:44;110.90;;;14.93;;
66012;SDS011;52783;50.502;8.190;2023-02-15T08:34:10;142.88;;;15.95;;
66012;SDS011;52783;50.502;8.190;2023-02-15T08:36:38;105.40;;;15.55;;
66012;SDS011;52783;50.502;8.190;2023-02-15T08:39:05;67.70;;;13.57;;
66012;SDS011;52783;50.502;8.190;2023-02-15T08:41:32;151.40;;;16.27;;
66012;SDS011;52783;50.502;8.190;2023-02-15T08:44:02;71.57;;;14.27;;
66012;SDS011;52783;50.502;8.190;2023-02-15T08:46:34;128.07;;;13.68;;
66012;SDS011;52783;50.502;8.190;2023-02-15T08:49:02;103.15;;;16.27;;
66012;SDS011;52783;50.502;8.190;2023-02-15T08:51:29;96.13;;;14.88;;
66012;SDS011;52783;50.502;8.190;2023-02-15T08:53:57;60.33;;;13.93;;
66012;SDS011;52783;50.502;8.190;2023-02-15T08:56:26;103.55;;;17.63;;
66012;SDS011;52783;50.502;8.190;2023-02-15T08:58:53;82.85;;;15.60;;
66012;SDS011;52783;50.502;8.190;2023-02-15T09:01:21;94.88;;;16.08;;
66012;SDS011;52783;50.502;8.190;2023-02-15T09:03:49;182.13;;;17.88;;
66012;SDS011;52783;50.502;8.190;2023-02-15T09:06:20;127.00;;;15.50;;
66012;SDS011;52783;50.502;8.190;2023-02-15T09:08:47;144.88;;;17.92;;
66012;SDS011;52783;50.502;8.190;2023-02-15T09:11:17;126.30;;;16.63;;
66012;SDS011;52783;50.502;8.190;2023-02-15T09:13:52;97.25;;;16.92;;
66012;SDS011;52783;50.502;8.190;2023-02-15T09:16:33;79.60;;;15.55;;
66012;SDS011;52783;50.502;8.190;2023-02-15T09:19:00;69.18;;;16.20;;
66012;SDS011;52783;50.502;8.190;2023-02-15T09:21:26;57.78;;;13.90;;
66012;SDS011;52783;50.502;8.190;2023-02-15T09:23:57;67.10;;;15.23;;
66012;SDS011;52783;50.502;8.190;2023-02-15T09:26:25;71.88;;;14.00;;
66012;SDS011;52783;50.502;8.190;2023-02-15T09:28:54;107.28;;;16.88;;
66012;SDS011;52783;50.502;8.190;2023-02-15T09:31:24;74.22;;;16.77;;
66012;SDS011;52783;50.502;8.190;2023-02-15T09:33:51;85.45;;;13.60;;
66012;SDS011;52783;50.502;8.190;2023-02-15T09:36:22;85.47;;;14.18;;
66012;SDS011;52783;50.502;8.190;2023-02-15T09:39:50;104.38;;;15.02;;
66012;SDS011;52783;50.502;8.190;2023-02-15T09:47:42;69.97;;;15.15;;
66012;SDS011;52783;50.502;8.190;2023-02-15T09:56:28;50.63;;;14.35;;
66012;SDS011;52783;50.502;8.190;2023-02-15T10:04:46;46.30;;;15.20;;
66012;SDS011;52783;50.502;8.190;2023-02-15T10:10:19;51.92;;;16.08;;
66012;SDS011;52783;50.502;8.190;2023-02-15T10:13:05;53.65;;;14.55;;
66012;SDS011;52783;50.502;8.190;2023-02-15T10:15:34;48.83;;;15.07;;
66012;SDS011;52783;50.502;8.190;2023-02-15T10:18:15;50.47;;;14.82;;
66012;SDS011;52783;50.502;8.190;2023-02-15T10:20:55;42.97;;;14.38;;
66012;SDS011;52783;50.502;8.190;2023-02-15T10:28:53;41.47;;;14.50;;
66012;SDS011;52783;50.502;8.190;2023-02-15T10:31:34;35.97;;;13.70;;
66012;SDS011;52783;50.502;8.190;2023-02-15T10:45:07;33.45;;;14.77;;
66012;SDS011;52783;50.502;8.190;2023-02-15T10:53:13;32.35;;;13.65;;
66012;SDS011;52783;50.502;8.190;2023-02-15T10:56:23;25.83;;;12.38;;
66012;SDS011;52783;50.502;8.190;2023-02-15T10:59:15;29.15;;;12.80;;
66012;SDS011;52783;50.502;8.190;2023-02-15T11:07:03;23.38;;;12.00;;
66012;SDS011;52783;50.502;8.190;2023-02-15T11:09:55;26.88;;;12.75;;
66012;SDS011;52783;50.502;8.190;2023-02-15T11:12:30;24.73;;;12.95;;
66012;SDS011;52783;50.502;8.190;2023-02-15T11:15:00;33.22;;;14.10;;
66012;SDS011;52783;50.502;8.190;2023-02-15T11:17:41;27.40;;;12.88;;
66012;SDS011;52783;50.502;8.190;2023-02-15T11:20:18;24.83;;;12.50;;
66012;SDS011;52783;50.502;8.190;2023-02-15T11:23:00;28.42;;;12.85;;
66012;SDS011;52783;50.502;8.190;2023-02-15T11:25:31;29.52;;;14.52;;
66012;SDS011;52783;50.502;8.190;2023-02-15T11:27:59;29.92;;;13.88;;
66012;SDS011;52783;50.502;8.190;2023-02-15T11:30:37;28.35;;;13.52;;
66012;SDS011;52783;50.502;8.190;2023-02-15T11:33:12;26.90;;;12.93;;
66012;SDS011;52783;50.502;8.190;2023-02-15T11:38:32;27.67;;;13.05;;
66012;SDS011;52783;50.502;8.190;2023-02-15T11:41:03;26.95;;;12.32;;
66012;SDS011;52783;50.502;8.190;2023-02-15T11:46:13;26.33;;;12.95;;
66012;SDS011;52783;50.502;8.190;2023-02-15T11:48:39;25.38;;;13.38;;
66012;SDS011;52783;50.502;8.190;2023-02-15T11:51:08;26.70;;;13.60;;
66012;SDS011;52783;50.502;8.190;2023-02-15T11:53:37;23.23;;;12.60;;
66012;SDS011;52783;50.502;8.190;2023-02-15T11:56:04;28.90;;;15.00;;
66012;SDS011;52783;50.502;8.190;2023-02-15T12:01:16;29.70;;;13.43;;
66012;SDS011;52783;50.502;8.190;2023-02-15T12:03:51;30.58;;;13.18;;
66012;SDS011;52783;50.502;8.190;2023-02-15T12:12:22;28.10;;;14.30;;
66012;SDS011;52783;50.502;8.190;2023-02-15T12:14:57;23.30;;;13.45;;
66012;SDS011;52783;50.502;8.190;2023-02-15T12:17:25;27.00;;;14.63;;
66012;SDS011;52783;50.502;8.190;2023-02-15T12:19:53;27.45;;;13.80;;
66012;SDS011;52783;50.502;8.190;2023-02-15T12:22:29;27.35;;;14.45;;
66012;SDS011;52783;50.502;8.190;2023-02-15T12:25:01;28.35;;;14.80;;
66012;SDS011;52783;50.502;8.190;2023-02-15T12:27:36;34.83;;;15.73;;
66012;SDS011;52783;50.502;8.190;2023-02-15T12:30:53;28.00;;;14.82;;
66012;SDS011;52783;50.502;8.190;2023-02-15T12:33:07;27.75;;;15.80;;
66012;SDS011;52783;50.502;8.190;2023-02-15T12:35:42;32.47;;;14.10;;
66012;SDS011;52783;50.502;8.190;2023-02-15T12:40:34;30.25;;;15.90;;
66012;SDS011;52783;50.502;8.190;2023-02-15T12:43:04;31.20;;;16.02;;
66012;SDS011;52783;50.502;8.190;2023-02-15T12:45:48;27.75;;;14.88;;
66012;SDS011;52783;50.502;8.190;2023-02-15T12:48:18;28.27;;;14.93;;
66012;SDS011;52783;50.502;8.190;2023-02-15T12:50:45;29.98;;;14.95;;
66012;SDS011;52783;50.502;8.190;2023-02-15T12:53:18;25.58;;;14.45;;
66012;SDS011;52783;50.502;8.190;2023-02-15T12:55:55;28.50;;;14.30;;
66012;SDS011;52783;50.502;8.190;2023-02-15T12:58:23;32.45;;;14.20;;
66012;SDS011;52783;50.502;8.190;2023-02-15T13:03:34;27.25;;;13.30;;
66012;SDS011;52783;50.502;8.190;2023-02-15T13:06:02;26.17;;;13.88;;
66012;SDS011;52783;50.502;8.190;2023-02-15T13:08:34;30.48;;;14.63;;
66012;SDS011;52783;50.502;8.190;2023-02-15T13:11:07;31.23;;;15.55;;
66012;SDS011;52783;50.502;8.190;2023-02-15T13:13:35;25.87;;;13.83;;
66012;SDS011;52783;50.502;8.190;2023-02-15T13:16:13;26.60;;;14.20;;
66012;SDS011;52783;50.502;8.190;2023-02-15T13:18:43;25.85;;;12.30;;
66012;SDS011;52783;50.502;8.190;2023-02-15T13:21:14;32.35;;;14.00;;
66012;SDS011;52783;50.502;8.190;2023-02-15T13:23:47;26.65;;;14.57;;
66012;SDS011;52783;50.502;8.190;2023-02-15T13:26:18;22.80;;;13.02;;
66012;SDS011;52783;50.502;8.190;2023-02-15T13:28:50;26.00;;;13.57;;
66012;SDS011;52783;50.502;8.190;2023-02-15T13:31:20;27.40;;;14.25;;
66012;SDS011;52783;50.502;8.190;2023-02-15T13:33:51;29.52;;;14.63;;
66012;SDS011;52783;50.502;8.190;2023-02-15T13:36:31;35.28;;;15.88;;
66012;SDS011;52783;50.502;8.190;2023-02-15T13:39:15;28.08;;;15.32;;
66012;SDS011;52783;50.502;8.190;2023-02-15T13:41:58;26.92;;;14.43;;
66012;SDS011;52783;50.502;8.190;2023-02-15T13:44:33;31.02;;;15.63;;
66012;SDS011;52783;50.502;8.190;2023-02-15T13:47:39;33.08;;;14.27;;
66012;SDS011;52783;50.502;8.190;2023-02-15T13:50:26;28.17;;;14.13;;
66012;SDS011;52783;50.502;8.190;2023-02-15T13:53:11;33.50;;;15.57;;
66012;SDS011;52783;50.502;8.190;2023-02-15T13:58:34;28.27;;;13.60;;
66012;SDS011;52783;50.502;8.190;2023-02-15T14:06:34;34.40;;;15.13;;
66012;SDS011;52783;50.502;8.190;2023-02-15T14:17:31;31.02;;;15.57;;
66012;SDS011;52783;50.502;8.190;2023-02-15T14:20:21;35.33;;;16.92;;
66012;SDS011;52783;50.502;8.190;2023-02-15T14:26:04;35.92;;;15.90;;
66012;SDS011;52783;50.502;8.190;2023-02-15T14:28:46;36.00;;;17.20;;
66012;SDS011;52783;50.502;8.190;2023-02-15T14:31:18;31.20;;;15.85;;
66012;SDS011;52783;50.502;8.190;2023-02-15T14:33:57;32.78;;;14.02;;
66012;SDS011;52783;50.502;8.190;2023-02-15T14:36:23;30.77;;;16.73;;
66012;SDS011;52783;50.502;8.190;2023-02-15T14:41:42;36.25;;;17.13;;
66012;SDS011;52783;50.502;8.190;2023-02-15T14:49:50;34.78;;;16.38;;
66012;SDS011;52783;50.502;8.190;2023-02-15T14:52:16;33.80;;;15.68;;
66012;SDS011;52783;50.502;8.190;2023-02-15T15:02:17;34.17;;;17.35;;
66012;SDS011;52783;50.502;8.190;2023-02-15T15:12:48;36.83;;;16.70;;
66012;SDS011;52783;50.502;8.190;2023-02-15T15:18:04;37.13;;;16.88;;
66012;SDS011;52783;50.502;8.190;2023-02-15T15:20:37;36.15;;;17.55;;
66012;SDS011;52783;50.502;8.190;2023-02-15T15:25:41;40.78;;;18.33;;
66012;SDS011;52783;50.502;8.190;2023-02-15T15:31:07;38.42;;;18.75;;
66012;SDS011;52783;50.502;8.190;2023-02-15T15:50:34;41.17;;;20.08;;
66012;SDS011;52783;50.502;8.190;2023-02-15T15:53:05;42.65;;;20.73;;
66012;SDS011;52783;50.502;8.190;2023-02-15T15:55:40;47.10;;;21.83;;
66012;SDS011;52783;50.502;8.190;2023-02-15T15:58:06;44.38;;;19.30;;
66012;SDS011;52783;50.502;8.190;2023-02-15T16:00:37;58.47;;;20.83;;
66012;SDS011;52783;50.502;8.190;2023-02-15T16:03:14;50.67;;;23.10;;
66012;SDS011;52783;50.502;8.190;2023-02-15T16:05:40;60.63;;;26.10;;
66012;SDS011;52783;50.502;8.190;2023-02-15T16:08:06;49.80;;;22.40;;
66012;SDS011;52783;50.502;8.190;2023-02-15T16:10:32;41.58;;;20.05;;
66012;SDS011;52783;50.502;8.190;2023-02-15T16:13:00;42.03;;;20.95;;
66012;SDS011;52783;50.502;8.190;2023-02-15T16:15:34;57.38;;;24.33;;
66012;SDS011;52783;50.502;8.190;2023-02-15T16:18:10;47.70;;;20.63;;
66012;SDS011;52783;50.502;8.190;2023-02-15T16:20:39;47.08;;;22.75;;
66012;SDS011;52783;50.502;8.190;2023-02-15T16:28:36;43.95;;;19.75;;
66012;SDS011;52783;50.502;8.190;2023-02-15T16:31:07;49.63;;;21.92;;
66012;SDS011;52783;50.502;8.190;2023-02-15T16:33:38;42.40;;;20.83;;
66012;SDS011;52783;50.502;8.190;2023-02-15T16:36:05;43.58;;;20.80;;
66012;SDS011;52783;50.502;8.190;2023-02-15T16:41:12;47.83;;;22.10;;
66012;SDS011;52783;50.502;8.190;2023-02-15T16:43:49;43.78;;;18.63;;
66012;SDS011;52783;50.502;8.190;2023-02-15T16:48:53;41.35;;;18.52;;
66012;SDS011;52783;50.502;8.190;2023-02-15T16:51:24;41.67;;;18.33;;
66012;SDS011;52783;50.502;8.190;2023-02-15T16:53:52;50.40;;;20.17;;
66012;SDS011;52783;50.502;8.190;2023-02-15T16:56:22;44.38;;;19.77;;
66012;SDS011;52783;50.502;8.190;2023-02-15T16:58:51;56.03;;;22.25;;
66012;SDS011;52783;50.502;8.190;2023-02-15T17:01:20;55.42;;;20.02;;
66012;SDS011;52783;50.502;8.190;2023-02-15T17:03:49;70.13;;;17.13;;
66012;SDS011;52783;50.502;8.190;2023-02-15T17:08:50;61.78;;;18.98;;
66012;SDS011;52783;50.502;8.190;2023-02-15T17:11:17;65.35;;;19.90;;
66012;SDS011;52783;50.502;8.190;2023-02-15T17:16:35;82.38;;;19.17;;
66012;SDS011;52783;50.502;8.190;2023-02-15T17:19:19;53.17;;;19.15;;
66012;SDS011;52783;50.502;8.190;2023-02-15T17:21:52;56.90;;;18.83;;
66012;SDS011;52783;50.502;8.190;2023-02-15T17:24:39;64.85;;;20.23;;
66012;SDS011;52783;50.502;8.190;2023-02-15T17:27:29;56.60;;;18.52;;
66012;SDS011;52783;50.502;8.190;2023-02-15T17:30:00;69.55;;;20.20;;
66012;SDS011;52783;50.502;8.190;2023-02-15T17:36:07;57.47;;;18.27;;
66012;SDS011;52783;50.502;8.190;2023-02-15T17:38:38;57.95;;;20.35;;
66012;SDS011;52783;50.502;8.190;2023-02-15T17:41:05;53.90;;;20.25;;
66012;SDS011;52783;50.502;8.190;2023-02-15T17:43:34;59.00;;;21.80;;
66012;SDS011;52783;50.502;8.190;2023-02-15T17:46:00;67.97;;;21.67;;
66012;SDS011;52783;50.502;8.190;2023-02-15T17:48:36;59.13;;;20.42;;
66012;SDS011;52783;50.502;8.190;2023-02-15T17:51:05;62.97;;;17.25;;
66012;SDS011;52783;50.502;8.190;2023-02-15T17:53:36;59.33;;;17.95;;
66012;SDS011;52783;50.502;8.190;2023-02-15T17:56:05;74.10;;;19.65;;
66012;SDS011;52783;50.502;8.190;2023-02-15T17:58:40;66.78;;;19.42;;
66012;SDS011;52783;50.502;8.190;2023-02-15T18:01:16;78.82;;;18.45;;